Time;durP1;ratioP1;P1;durP2;ratioP2;P2;SDS_P1;SDS_P2;PMS_P1;PMS_P2;Temp;Humidity;BMP_temperature;BMP_pressure;BME280_temperature;BME280_humidity;BME280_pressure;Samples;Min_cycle;Max_cycle;Signal;HPM_P1;HPM_P2
2023/09/29 00:00:31;;;;;;;9.70;4.57;;;18.60;91.80;;;;;;5076308;28;20049;-81
2023/09/29 00:02:57;;;;;;;9.70;4.70;;;18.70;91.80;;;;;;5059575;28;20025;-81
2023/09/29 00:05:23;;;;;;;11.85;4.63;;;18.70;91.90;;;;;;5058726;28;20029;-81
2023/09/29 00:07:52;;;;;;;7.32;4.35;;;18.60;91.80;;;;;;5042187;28;20171;-81
2023/09/29 00:10:20;;;;;;;10.88;4.00;;;18.60;91.80;;;;;;5042503;28;20174;-81
2023/09/29 00:12:48;;;;;;;10.50;4.50;;;18.60;91.90;;;;;;5042220;28;20036;-82
2023/09/29 00:15:15;;;;;;;8.18;4.05;;;18.60;91.90;;;;;;5058855;28;20028;-81
2023/09/29 00:17:41;;;;;;;8.77;4.35;;;18.50;91.80;;;;;;5076071;28;20021;-81
2023/09/29 00:20:26;;;;;;;11.75;5.00;;;18.40;91.90;;;;;;5058577;28;20105;-82
2023/09/29 00:22:56;;;;;;;11.85;4.47;;;18.40;92.10;;;;;;5058373;28;20105;-82
2023/09/29 00:25:23;;;;;;;8.23;4.65;;;18.40;92.10;;;;;;5058325;28;20029;-82
2023/09/29 00:27:50;;;;;;;13.25;4.97;;;18.30;92.10;;;;;;5075912;28;20024;-81
2023/09/29 00:30:17;;;;;;;12.52;5.28;;;18.30;92.30;;;;;;5058301;28;20060;-81
2023/09/29 00:32:48;;;;;;;13.02;5.50;;;18.30;92.30;;;;;;5057771;28;20036;-81
2023/09/29 00:35:19;;;;;;;10.88;5.05;;;18.30;92.50;;;;;;5074910;28;20021;-81
2023/09/29 00:37:45;;;;;;;10.30;5.55;;;18.30;92.70;;;;;;5058959;28;20022;-81
2023/09/29 00:40:14;;;;;;;16.10;6.63;;;18.20;92.90;;;;;;5058024;28;20036;-82
2023/09/29 00:42:42;;;;;;;12.68;6.13;;;18.20;92.90;;;;;;5058000;28;20044;-81
2023/09/29 00:45:08;;;;;;;14.80;5.85;;;18.20;93.40;;;;;;5041375;28;20051;-81
2023/09/29 00:47:36;;;;;;;16.38;6.50;;;18.30;93.00;;;;;;5057857;28;20036;-81
2023/09/29 00:50:07;;;;;;;11.93;6.15;;;18.30;93.10;;;;;;5057862;28;20025;-81
2023/09/29 00:52:40;;;;;;;12.70;6.47;;;18.30;93.30;;;;;;5075593;28;20032;-81
2023/09/29 00:55:11;;;;;;;12.70;7.20;;;18.30;93.30;;;;;;5058902;28;20032;-81
2023/09/29 00:57:49;;;;;;;14.93;7.28;;;18.30;93.30;;;;;;5058128;28;20025;-81
2023/09/29 01:00:37;;;;;;;14.43;7.15;;;18.40;93.30;;;;;;5057482;28;20045;-81
2023/09/29 01:03:06;;;;;;;14.00;7.55;;;18.40;93.50;;;;;;5060094;28;20039;-81
2023/09/29 01:05:41;;;;;;;11.57;6.78;;;18.40;93.60;;;;;;5075259;28;20036;-81
2023/09/29 01:08:09;;;;;;;15.15;7.00;;;18.40;93.60;;;;;;5075308;28;20033;-81
2023/09/29 01:10:36;;;;;;;13.48;7.13;;;18.30;93.70;;;;;;5075249;28;20025;-81
2023/09/29 01:13:02;;;;;;;17.70;7.22;;;18.30;93.70;;;;;;5057586;28;20033;-81
2023/09/29 01:15:28;;;;;;;12.75;6.93;;;18.40;93.80;;;;;;5057302;28;20052;-81
2023/09/29 01:17:54;;;;;;;10.13;6.78;;;18.40;93.80;;;;;;5040960;28;20025;-81
2023/09/29 01:20:30;;;;;;;11.85;7.22;;;18.40;93.80;;;;;;5057372;28;20021;-81
2023/09/29 01:22:58;;;;;;;11.90;6.95;;;18.40;93.80;;;;;;5075079;28;20060;-81
2023/09/29 01:25:24;;;;;;;15.52;6.85;;;18.50;93.90;;;;;;5074918;28;20025;-81
2023/09/29 01:27:50;;;;;;;12.27;6.70;;;18.50;93.90;;;;;;5074805;28;20031;-80
2023/09/29 01:30:18;;;;;;;11.18;6.25;;;18.50;93.80;;;;;;5074721;28;20032;-81
2023/09/29 01:32:49;;;;;;;9.98;5.95;;;18.50;93.90;;;;;;5057528;28;20029;-81
2023/09/29 01:35:16;;;;;;;10.95;6.15;;;18.60;93.90;;;;;;5056887;28;20029;-81
2023/09/29 01:37:42;;;;;;;12.55;6.40;;;18.50;93.90;;;;;;5074654;28;20029;-81
2023/09/29 01:40:09;;;;;;;13.25;6.18;;;18.50;93.80;;;;;;5056870;28;20036;-81
2023/09/29 01:42:35;;;;;;;11.23;6.00;;;18.50;93.90;;;;;;5057071;28;20028;-81
2023/09/29 01:45:04;;;;;;;13.95;6.00;;;18.50;94.00;;;;;;5056547;28;20089;-81
2023/09/29 01:47:30;;;;;;;15.45;6.32;;;18.50;94.00;;;;;;5057253;28;20024;-81
2023/09/29 01:49:55;;;;;;;9.57;5.30;;;18.50;93.90;;;;;;5057058;28;20434;-81
2023/09/29 01:52:22;;;;;;;12.27;5.63;;;18.50;93.90;;;;;;5040263;28;20029;-81
2023/09/29 01:54:49;;;;;;;13.88;5.63;;;18.50;93.90;;;;;;5056483;28;20036;-81
2023/09/29 01:57:15;;;;;;;9.60;5.03;;;18.50;93.90;;;;;;5056592;28;20032;-81
2023/09/29 01:59:41;;;;;;;9.38;5.05;;;18.50;93.80;;;;;;5039875;28;20025;-81
2023/09/29 02:02:06;;;;;;;9.57;5.20;;;18.50;93.80;;;;;;5040110;28;20051;-81
2023/09/29 02:04:32;;;;;;;10.80;5.20;;;18.50;93.80;;;;;;5040003;28;20029;-81
2023/09/29 02:06:58;;;;;;;6.93;4.50;;;18.50;93.80;;;;;;5040030;28;20055;-81
2023/09/29 02:09:24;;;;;;;9.98;4.78;;;18.50;93.80;;;;;;5039862;28;20036;-81
2023/09/29 02:11:49;;;;;;;7.38;4.70;;;18.50;93.90;;;;;;5056483;28;20021;-81
2023/09/29 02:14:15;;;;;;;8.25;4.72;;;18.50;93.80;;;;;;5039653;28;20033;-81
2023/09/29 02:16:41;;;;;;;9.25;4.40;;;18.50;93.80;;;;;;5056314;28;20028;-81
2023/09/29 02:19:06;;;;;;;8.18;4.28;;;18.50;93.70;;;;;;5039766;28;20096;-81
2023/09/29 02:21:32;;;;;;;9.38;4.78;;;18.50;93.70;;;;;;5056284;28;20025;-81
2023/09/29 02:23:58;;;;;;;8.70;4.55;;;18.50;93.60;;;;;;5039717;28;20013;-81
2023/09/29 02:26:26;;;;;;;7.38;3.95;;;18.60;93.60;;;;;;5056184;28;20029;-81
2023/09/29 02:28:54;;;;;;;6.35;3.95;;;18.60;93.50;;;;;;5056034;28;20040;-81
2023/09/29 02:31:19;;;;;;;7.18;3.78;;;18.60;93.50;;;;;;5039843;28;20093;-81
2023/09/29 02:33:45;;;;;;;7.05;3.72;;;18.60;93.40;;;;;;5056076;28;20028;-81
2023/09/29 02:36:11;;;;;;;6.35;3.45;;;18.60;93.50;;;;;;5055806;28;20033;-80
2023/09/29 02:38:36;;;;;;;8.35;4.03;;;18.60;93.40;;;;;;5055918;28;20021;-81
2023/09/29 02:41:02;;;;;;;8.48;3.72;;;18.60;93.40;;;;;;5056003;28;20025;-80
2023/09/29 02:43:30;;;;;;;8.15;4.05;;;18.60;93.30;;;;;;5039473;28;20021;-80
2023/09/29 02:45:56;;;;;;;9.77;4.13;;;18.60;93.30;;;;;;5073436;28;20076;-80
2023/09/29 02:48:22;;;;;;;6.93;3.63;;;18.60;93.20;;;;;;5073312;28;20096;-81
2023/09/29 02:50:48;;;;;;;7.20;3.65;;;18.60;93.00;;;;;;5055668;28;20029;-81
2023/09/29 02:53:14;;;;;;;5.90;3.60;;;18.60;93.10;;;;;;5055628;28;20059;-81
2023/09/29 02:55:40;;;;;;;6.35;3.63;;;18.60;93.00;;;;;;5039109;28;20032;-81
2023/09/29 02:58:07;;;;;;;6.30;3.50;;;18.60;92.90;;;;;;5055073;28;20032;-81
2023/09/29 03:00:32;;;;;;;5.32;3.58;;;18.60;93.00;;;;;;5073026;28;20048;-81
2023/09/29 03:02:59;;;;;;;7.05;3.67;;;18.60;93.10;;;;;;5055637;28;20037;-81
2023/09/29 03:05:25;;;;;;;6.88;3.40;;;18.60;93.10;;;;;;5055490;28;20060;-81
2023/09/29 03:07:51;;;;;;;5.97;3.25;;;18.70;93.10;;;;;;5073137;28;20036;-81
2023/09/29 03:10:17;;;;;;;5.32;3.10;;;18.60;93.10;;;;;;5073123;28;20033;-81
2023/09/29 03:12:44;;;;;;;4.63;3.00;;;18.60;93.10;;;;;;5055680;28;20029;-81
2023/09/29 03:15:13;;;;;;;5.90;2.80;;;18.60;93.10;;;;;;5073119;28;20045;-81
2023/09/29 03:17:39;;;;;;;7.70;3.05;;;18.60;93.20;;;;;;5055936;28;20018;-81
2023/09/29 03:20:09;;;;;;;8.38;3.15;;;18.70;93.40;;;;;;5055404;28;20089;-81
2023/09/29 03:22:37;;;;;;;5.53;2.90;;;18.70;93.00;;;;;;5055566;28;20017;-81
2023/09/29 03:25:04;;;;;;;7.20;2.95;;;18.70;93.10;;;;;;5055341;28;20033;-81
2023/09/29 03:27:30;;;;;;;6.63;3.42;;;18.70;93.10;;;;;;5055277;28;20084;-82
2023/09/29 03:29:55;;;;;;;6.57;2.92;;;18.70;93.10;;;;;;5038776;28;20464;-81
2023/09/29 03:32:22;;;;;;;6.45;3.20;;;18.70;93.20;;;;;;5055477;28;20036;-81
2023/09/29 03:34:48;;;;;;;5.90;3.15;;;18.70;93.30;;;;;;5038877;28;20021;-81
2023/09/29 03:37:14;;;;;;;6.05;3.65;;;18.70;93.30;;;;;;5055528;28;20025;-81
2023/09/29 03:39:40;;;;;;;6.85;3.45;;;18.80;93.20;;;;;;5055306;28;20021;-81
2023/09/29 03:42:05;;;;;;;5.15;3.00;;;18.80;93.20;;;;;;5038740;28;20373;-81
2023/09/29 03:44:32;;;;;;;6.22;3.10;;;18.80;93.60;;;;;;5055273;28;20029;-81
2023/09/29 03:46:58;;;;;;;5.53;2.92;;;18.80;93.20;;;;;;5055095;28;20033;-81
2023/09/29 03:49:23;;;;;;;5.38;2.75;;;18.90;93.20;;;;;;5055165;28;20067;-81
2023/09/29 03:51:51;;;;;;;6.82;3.17;;;18.90;93.20;;;;;;5038627;28;20102;-81
2023/09/29 03:54:18;;;;;;;5.10;3.30;;;18.90;93.20;;;;;;5054999;28;20530;-81
2023/09/29 03:56:44;;;;;;;8.00;3.63;;;18.90;93.30;;;;;;5055468;28;20022;-81
2023/09/29 03:59:10;;;;;;;5.20;3.20;;;18.90;93.30;;;;;;5038518;28;20021;-81
2023/09/29 04:01:36;;;;;;;4.45;3.03;;;18.90;93.40;;;;;;5055016;28;20072;-81
2023/09/29 04:04:02;;;;;;;8.90;3.33;;;18.90;93.40;;;;;;5055061;28;20025;-81
2023/09/29 04:06:29;;;;;;;5.40;3.08;;;18.90;93.60;;;;;;5054874;28;20058;-81
2023/09/29 04:08:55;;;;;;;4.95;3.30;;;18.90;93.50;;;;;;5075000;28;20052;-81
2023/09/29 04:11:21;;;;;;;5.25;3.40;;;18.90;93.50;;;;;;5041992;28;20037;-81
2023/09/29 04:13:47;;;;;;;5.47;3.53;;;18.90;93.70;;;;;;5076234;28;20060;-81
2023/09/29 04:16:14;;;;;;;8.18;3.72;;;18.90;93.70;;;;;;5076074;28;20029;-81
2023/09/29 04:18:39;;;;;;;6.60;3.63;;;18.90;93.80;;;;;;5076158;28;20023;-81
2023/09/29 04:21:12;;;;;;;7.65;3.47;;;18.90;93.80;;;;;;5058606;28;20033;-81
2023/09/29 04:23:37;;;;;;;6.70;3.78;;;18.90;93.90;;;;;;5076147;28;20040;-81
2023/09/29 04:26:03;;;;;;;6.00;3.50;;;18.90;93.90;;;;;;5041820;28;20036;-81
2023/09/29 04:28:28;;;;;;;5.40;3.97;;;18.90;94.00;;;;;;5058411;28;20040;-81
2023/09/29 04:30:54;;;;;;;8.07;3.95;;;18.90;94.10;;;;;;5058207;28;20041;-82
2023/09/29 04:33:20;;;;;;;6.13;3.63;;;18.90;94.00;;;;;;5041709;28;20021;-81
2023/09/29 04:35:45;;;;;;;8.35;3.60;;;18.90;94.10;;;;;;5041430;28;20037;-81
2023/09/29 04:38:11;;;;;;;7.40;3.90;;;18.90;94.30;;;;;;5041728;28;20031;-81
2023/09/29 04:40:37;;;;;;;7.63;3.80;;;18.90;94.30;;;;;;5058164;28;20052;-81
2023/09/29 04:43:04;;;;;;;6.70;3.78;;;18.90;94.60;;;;;;5057993;28;20059;-81
2023/09/29 04:45:30;;;;;;;7.95;3.80;;;19.00;94.20;;;;;;5058358;28;20029;-81
2023/09/29 04:47:58;;;;;;;6.38;4.20;;;19.00;94.30;;;;;;5058042;28;20029;-81
2023/09/29 04:50:23;;;;;;;7.38;4.13;;;18.90;94.30;;;;;;5041831;28;20056;-82
2023/09/29 04:52:49;;;;;;;6.85;4.20;;;18.90;94.50;;;;;;5058076;28;20024;-81
2023/09/29 04:55:15;;;;;;;4.45;3.35;;;18.90;94.70;;;;;;5041381;28;20043;-81
2023/09/29 04:57:41;;;;;;;7.75;3.35;;;18.80;94.70;;;;;;5057835;28;20041;-81
2023/09/29 05:00:07;;;;;;;6.00;3.58;;;18.80;94.80;;;;;;5075099;28;20112;-81
2023/09/29 05:02:33;;;;;;;4.07;2.88;;;18.80;94.90;;;;;;5057591;28;20029;-81
2023/09/29 05:04:58;;;;;;;5.50;2.97;;;18.90;94.90;;;;;;5041050;28;20163;-82
2023/09/29 05:07:24;;;;;;;4.18;3.08;;;18.80;95.00;;;;;;5057711;28;20104;-81
2023/09/29 05:09:49;;;;;;;5.75;2.83;;;18.80;95.20;;;;;;5075343;28;20088;-81
2023/09/29 05:12:15;;;;;;;5.20;3.20;;;18.80;95.20;;;;;;5040945;28;20052;-82
2023/09/29 05:14:41;;;;;;;5.60;3.25;;;18.80;95.30;;;;;;5057464;28;20092;-81
2023/09/29 05:17:07;;;;;;;5.75;3.22;;;18.80;95.20;;;;;;5075041;28;20072;-81
2023/09/29 05:19:33;;;;;;;5.85;3.25;;;18.90;95.10;;;;;;5074331;28;20036;-79
2023/09/29 05:21:59;;;;;;;4.32;2.80;;;19.00;95.20;;;;;;5057294;28;20027;-79
2023/09/29 05:24:25;;;;;;;5.88;3.78;;;18.90;95.10;;;;;;5075021;28;20021;-80
2023/09/29 05:26:50;;;;;;;5.53;3.38;;;18.90;95.40;;;;;;5057327;28;20040;-79
2023/09/29 05:29:16;;;;;;;6.07;3.42;;;18.80;95.40;;;;;;5057378;28;20029;-79
2023/09/29 05:31:43;;;;;;;6.63;3.53;;;18.90;95.60;;;;;;5074740;28;20032;-79
2023/09/29 05:34:09;;;;;;;4.50;3.20;;;18.90;95.50;;;;;;5074500;28;20029;-79
2023/09/29 05:36:35;;;;;;;5.20;3.15;;;18.90;95.50;;;;;;5057203;28;20021;-79
2023/09/29 05:39:00;;;;;;;4.60;3.03;;;18.90;95.50;;;;;;5040427;28;20041;-79
2023/09/29 05:41:26;;;;;;;5.20;3.25;;;18.90;95.70;;;;;;5057099;28;20048;-80
2023/09/29 05:43:52;;;;;;;6.32;2.83;;;19.00;95.70;;;;;;5074549;28;20025;-79
2023/09/29 05:46:17;;;;;;;5.72;2.83;;;18.90;95.80;;;;;;5056900;28;20055;-80
2023/09/29 05:48:43;;;;;;;5.75;3.53;;;18.90;96.20;;;;;;5056861;28;20088;-79
2023/09/29 05:51:08;;;;;;;5.55;3.00;;;18.90;95.80;;;;;;5040465;28;20033;-80
2023/09/29 05:53:34;;;;;;;4.72;3.08;;;18.90;95.90;;;;;;5040105;28;20037;-80
2023/09/29 05:56:09;;;;;;;4.57;2.92;;;19.00;95.90;;;;;;5074195;28;20048;-80
2023/09/29 05:58:38;;;;;;;7.63;3.05;;;19.00;95.90;;;;;;5057298;28;20039;-80
2023/09/29 06:01:13;;;;;;;5.80;3.10;;;19.00;96.10;;;;;;5056531;28;20045;-80
2023/09/29 06:03:40;;;;;;;4.90;2.85;;;19.00;96.10;;;;;;5056516;28;20084;-80
2023/09/29 06:06:07;;;;;;;4.97;2.90;;;19.00;96.00;;;;;;5056839;28;20044;-81
2023/09/29 06:08:32;;;;;;;4.78;2.70;;;19.00;96.20;;;;;;5074064;28;20111;-80
2023/09/29 06:10:58;;;;;;;6.18;2.90;;;19.00;96.20;;;;;;5039822;28;20025;-80
2023/09/29 06:13:23;;;;;;;4.65;2.50;;;19.20;96.20;;;;;;5039766;28;20033;-80
2023/09/29 06:15:49;;;;;;;4.88;2.80;;;19.20;96.10;;;;;;5039716;28;20040;-81
2023/09/29 06:18:15;;;;;;;6.40;2.83;;;19.20;96.20;;;;;;5056259;28;20059;-81
2023/09/29 06:20:41;;;;;;;4.53;3.00;;;19.20;96.10;;;;;;5039776;28;20029;-80
2023/09/29 06:23:07;;;;;;;4.80;2.88;;;19.20;96.00;;;;;;5039680;28;20036;-82
2023/09/29 06:25:33;;;;;;;5.68;2.95;;;19.20;95.90;;;;;;5056178;28;20068;-79
2023/09/29 06:27:59;;;;;;;8.68;3.47;;;19.20;96.00;;;;;;5056223;28;20029;-80
2023/09/29 06:30:24;;;;;;;5.88;3.00;;;19.20;96.20;;;;;;5039636;28;20037;-81
2023/09/29 06:32:50;;;;;;;6.28;2.78;;;19.30;96.10;;;;;;5055213;28;20025;-82
2023/09/29 06:35:16;;;;;;;4.60;2.90;;;19.30;96.30;;;;;;5055935;28;20448;-81
2023/09/29 06:37:42;;;;;;;4.93;3.03;;;19.30;96.20;;;;;;5056011;28;20036;-81
2023/09/29 06:40:12;;;;;;;4.95;2.63;;;19.40;96.30;;;;;;5056069;28;20017;-82
2023/09/29 06:42:40;;;;;;;3.33;2.30;;;19.40;96.20;;;;;;5073587;28;20021;-81
2023/09/29 06:45:07;;;;;;;4.85;2.85;;;19.50;96.30;;;;;;5039309;28;20647;-82
2023/09/29 06:47:33;;;;;;;5.50;2.55;;;19.50;96.20;;;;;;5073379;28;20089;-82
2023/09/29 06:49:59;;;;;;;4.38;2.58;;;19.50;96.10;;;;;;5039305;28;20029;-82
2023/09/29 06:52:25;;;;;;;4.68;2.35;;;19.60;96.30;;;;;;5055786;28;20028;-81
2023/09/29 06:54:51;;;;;;;4.70;2.53;;;19.60;96.20;;;;;;5073215;28;20059;-81
2023/09/29 06:57:16;;;;;;;5.72;2.45;;;19.60;96.20;;;;;;5055906;28;20097;-82
2023/09/29 06:59:42;;;;;;;3.97;2.40;;;19.60;96.30;;;;;;5055696;28;20059;-81
2023/09/29 07:02:08;;;;;;;3.65;2.55;;;19.60;96.20;;;;;;5055366;28;20064;-81
2023/09/29 07:04:33;;;;;;;4.30;2.65;;;19.70;96.20;;;;;;5039068;28;20036;-82
2023/09/29 07:06:59;;;;;;;5.65;2.75;;;19.60;96.20;;;;;;5055755;28;20029;-81
2023/09/29 07:09:26;;;;;;;6.60;2.90;;;19.70;96.20;;;;;;5055655;28;20037;-81
2023/09/29 07:11:51;;;;;;;4.50;2.97;;;19.70;96.20;;;;;;5055684;28;20024;-82
2023/09/29 07:14:17;;;;;;;5.57;2.63;;;19.70;96.20;;;;;;5038971;28;20040;-81
2023/09/29 07:16:44;;;;;;;3.88;3.00;;;19.80;96.10;;;;;;5038998;28;20048;-81
2023/09/29 07:19:12;;;;;;;5.30;2.80;;;19.80;96.00;;;;;;5055469;28;20013;-81
2023/09/29 07:21:38;;;;;;;4.15;3.00;;;19.80;96.00;;;;;;5039116;28;20037;-82
2023/09/29 07:24:05;;;;;;;5.28;2.90;;;19.90;95.90;;;;;;5055610;28;20029;-81
2023/09/29 07:26:31;;;;;;;6.22;3.33;;;19.90;95.80;;;;;;5055737;28;20025;-82
2023/09/29 07:29:01;;;;;;;7.78;3.50;;;19.90;95.70;;;;;;5055534;28;20033;-81
2023/09/29 07:31:36;;;;;;;6.30;3.38;;;19.90;95.80;;;;;;5073041;28;20013;-81
2023/09/29 07:34:02;;;;;;;5.10;3.40;;;19.90;95.70;;;;;;5055344;28;20037;-82
2023/09/29 07:36:33;;;;;;;7.13;3.28;;;19.90;95.80;;;;;;5072889;28;20044;-82
2023/09/29 07:38:59;;;;;;;6.75;3.40;;;19.90;95.80;;;;;;5055226;28;20021;-81
2023/09/29 07:41:24;;;;;;;5.50;3.40;;;19.90;95.90;;;;;;5055259;28;20032;-81
2023/09/29 07:43:51;;;;;;;5.55;3.22;;;19.90;95.80;;;;;;5057827;28;20021;-81
2023/09/29 07:46:16;;;;;;;7.55;3.25;;;19.90;95.80;;;;;;5059145;28;20028;-79
2023/09/29 07:48:42;;;;;;;5.70;3.28;;;20.00;95.70;;;;;;5042499;28;20079;-80
2023/09/29 07:51:08;;;;;;;6.15;3.42;;;20.10;95.70;;;;;;5042583;28;20049;-80
2023/09/29 07:53:33;;;;;;;5.38;3.35;;;20.10;95.70;;;;;;5059147;28;20032;-80
2023/09/29 07:55:59;;;;;;;8.73;3.42;;;20.20;95.70;;;;;;5058938;28;20448;-81
2023/09/29 07:58:25;;;;;;;6.40;3.60;;;20.30;95.60;;;;;;5059094;28;20048;-80
2023/09/29 08:00:50;;;;;;;7.05;3.47;;;20.30;95.60;;;;;;5058761;28;20075;-80
2023/09/29 08:03:16;;;;;;;4.70;3.20;;;20.30;95.50;;;;;;5058908;28;20021;-79
2023/09/29 08:05:42;;;;;;;8.52;3.25;;;20.40;95.40;;;;;;5058909;28;20041;-80
2023/09/29 08:08:07;;;;;;;4.85;3.22;;;20.40;95.40;;;;;;5076390;28;20056;-80
2023/09/29 08:10:33;;;;;;;5.80;3.10;;;20.50;95.30;;;;;;5042211;28;20029;-80
2023/09/29 08:12:59;;;;;;;5.57;2.90;;;20.60;95.40;;;;;;5058674;28;20029;-80
2023/09/29 08:15:24;;;;;;;5.55;2.75;;;20.60;95.30;;;;;;5076354;28;20447;-80
2023/09/29 08:17:50;;;;;;;5.68;2.72;;;20.70;95.10;;;;;;5058638;28;20017;-80
2023/09/29 08:20:18;;;;;;;4.85;3.03;;;20.70;94.90;;;;;;5042148;28;20021;-81
2023/09/29 08:22:44;;;;;;;5.30;2.38;;;20.80;95.00;;;;;;5058872;28;20023;-81
2023/09/29 08:25:10;;;;;;;5.45;3.08;;;20.90;95.00;;;;;;5058404;28;20028;-80
2023/09/29 08:27:37;;;;;;;3.60;2.15;;;21.00;95.10;;;;;;5076053;28;20025;-79
2023/09/29 08:30:04;;;;;;;6.63;2.80;;;21.00;94.40;;;;;;5076037;28;20089;-80
2023/09/29 08:32:30;;;;;;;6.82;2.92;;;21.10;94.90;;;;;;5075962;28;20089;-81
2023/09/29 08:34:56;;;;;;;4.90;2.65;;;21.20;94.70;;;;;;5041675;28;20037;-80
2023/09/29 08:37:22;;;;;;;3.95;2.42;;;21.30;94.60;;;;;;5041856;28;20025;-80
2023/09/29 08:39:49;;;;;;;4.82;2.53;;;21.30;94.10;;;;;;5041726;28;20021;-80
2023/09/29 08:42:38;;;;;;;4.53;2.50;;;21.40;94.10;;;;;;5058105;28;20033;-80
2023/09/29 08:45:29;;;;;;;4.22;2.30;;;21.40;93.70;;;;;;5058100;28;20020;-80
2023/09/29 08:47:58;;;;;;;3.50;2.10;;;21.40;94.00;;;;;;5075213;28;20035;-80
2023/09/29 08:50:24;;;;;;;4.55;2.15;;;21.50;93.70;;;;;;5075832;28;20089;-81
2023/09/29 08:52:53;;;;;;;4.57;2.30;;;21.40;93.10;;;;;;5075568;28;20032;-81
2023/09/29 08:55:19;;;;;;;5.20;2.40;;;21.50;93.70;;;;;;5056780;28;20025;-80
2023/09/29 08:57:45;;;;;;;3.72;2.25;;;21.50;93.50;;;;;;5057910;28;20036;-79
2023/09/29 09:00:12;;;;;;;4.25;2.33;;;21.60;93.20;;;;;;5040918;28;20033;-80
2023/09/29 09:02:41;;;;;;;3.53;1.92;;;21.60;93.00;;;;;;5041136;28;20025;-79
2023/09/29 09:05:09;;;;;;;4.57;2.10;;;21.70;93.60;;;;;;5041339;28;20033;-80
2023/09/29 09:07:36;;;;;;;4.65;2.00;;;21.70;93.00;;;;;;5075033;28;20044;-78
2023/09/29 09:10:03;;;;;;;4.70;2.28;;;21.70;93.00;;;;;;5040979;28;20029;-78
2023/09/29 09:12:36;;;;;;;5.95;2.50;;;21.70;92.90;;;;;;5041057;28;20025;-78
2023/09/29 09:15:07;;;;;;;6.00;2.50;;;21.70;92.90;;;;;;5041174;28;20149;-79
2023/09/29 09:17:34;;;;;;;4.95;2.30;;;21.60;92.80;;;;;;5057760;28;20051;-78
2023/09/29 09:20:01;;;;;;;3.78;2.40;;;21.60;93.00;;;;;;5075050;28;20053;-78
2023/09/29 09:22:32;;;;;;;4.45;2.08;;;21.60;93.30;;;;;;5074963;28;20023;-78
2023/09/29 09:25:02;;;;;;;4.07;2.10;;;21.50;92.90;;;;;;5057269;28;20025;-78
2023/09/29 09:27:38;;;;;;;4.30;2.30;;;21.50;93.00;;;;;;5057114;28;20157;-79
2023/09/29 09:30:05;;;;;;;4.60;2.60;;;21.50;92.30;;;;;;5074802;28;20029;-78
2023/09/29 09:32:31;;;;;;;4.55;2.10;;;21.60;93.20;;;;;;5040613;28;20096;-78
2023/09/29 09:34:58;;;;;;;6.00;2.45;;;21.80;93.00;;;;;;5074578;28;20021;-78
2023/09/29 09:37:25;;;;;;;5.88;2.47;;;22.00;92.50;;;;;;5074740;28;20021;-78
2023/09/29 09:39:55;;;;;;;4.65;2.30;;;22.10;92.40;;;;;;5074638;28;20096;-78
2023/09/29 09:42:26;;;;;;;6.10;2.47;;;22.10;92.40;;;;;;5057725;28;20115;-78
2023/09/29 09:44:58;;;;;;;6.43;2.50;;;22.00;92.00;;;;;;5040577;28;20029;-78
2023/09/29 09:47:25;;;;;;;3.83;2.00;;;22.00;92.10;;;;;;5056832;28;20032;-79
2023/09/29 09:49:57;;;;;;;5.13;2.70;;;22.10;92.30;;;;;;5056836;28;20024;-80
2023/09/29 09:52:32;;;;;;;5.93;2.50;;;22.00;92.10;;;;;;5056819;28;20025;-80
2023/09/29 09:55:04;;;;;;;6.13;2.80;;;22.00;92.10;;;;;;5056731;28;20028;-80
2023/09/29 09:57:33;;;;;;;4.78;2.75;;;21.90;91.80;;;;;;5056716;28;20032;-79
2023/09/29 10:00:10;;;;;;;3.88;2.05;;;21.90;91.90;;;;;;5040139;28;20022;-79
2023/09/29 10:02:52;;;;;;;3.78;2.38;;;21.90;92.20;;;;;;5056385;28;20067;-80
2023/09/29 10:05:23;;;;;;;5.80;2.60;;;21.80;92.30;;;;;;5039941;28;20096;-80
2023/09/29 10:07:52;;;;;;;6.68;2.83;;;21.60;93.10;;;;;;5057039;28;20033;-81
2023/09/29 10:10:37;;;;;;;5.47;3.20;;;21.50;93.70;;;;;;5056483;28;20021;-81
2023/09/29 10:13:06;;;;;;;5.75;3.22;;;21.30;94.60;;;;;;5074053;28;20035;-80
2023/09/29 10:15:32;;;;;;;7.68;3.50;;;21.30;94.60;;;;;;5073922;28;20025;-80
2023/09/29 10:18:17;;;;;;;6.00;3.40;;;21.30;94.70;;;;;;5056444;28;20014;-80
2023/09/29 10:20:44;;;;;;;8.38;3.88;;;21.40;94.90;;;;;;5073876;28;20029;-80
2023/09/29 10:23:14;;;;;;;7.15;3.72;;;21.40;95.10;;;;;;5056233;28;20025;-80
2023/09/29 10:25:42;;;;;;;6.47;3.58;;;21.40;95.10;;;;;;5073819;28;20029;-81
2023/09/29 10:28:08;;;;;;;6.00;3.60;;;21.30;95.50;;;;;;5056217;28;20021;-82
2023/09/29 10:30:40;;;;;;;7.10;3.60;;;21.30;95.50;;;;;;5056205;28;20096;-82
2023/09/29 10:33:13;;;;;;;5.43;3.40;;;21.20;96.00;;;;;;5073788;28;20039;-81
2023/09/29 10:35:47;;;;;;;6.78;4.07;;;21.30;96.30;;;;;;5055904;28;20049;-81
2023/09/29 10:38:33;;;;;;;7.38;3.80;;;21.30;96.10;;;;;;5056010;28;20032;-81
2023/09/29 10:40:59;;;;;;;5.55;3.83;;;21.30;96.40;;;;;;5055526;28;20067;-81
2023/09/29 10:43:24;;;;;;;6.35;3.97;;;21.30;96.00;;;;;;5073332;28;20029;-81
2023/09/29 10:45:51;;;;;;;7.82;4.18;;;21.30;96.00;;;;;;5039357;28;20044;-81
2023/09/29 10:48:26;;;;;;;6.82;4.00;;;21.40;96.20;;;;;;5073505;28;20021;-82
2023/09/29 10:50:52;;;;;;;6.32;3.10;;;21.40;96.40;;;;;;5055819;28;20534;-81
2023/09/29 10:53:21;;;;;;;6.95;3.40;;;21.40;96.00;;;;;;5055760;28;20029;-82
2023/09/29 10:55:52;;;;;;;5.88;3.00;;;21.40;95.50;;;;;;5039594;28;20112;-81
2023/09/29 10:58:19;;;;;;;5.28;2.38;;;21.40;95.10;;;;;;5039419;28;20093;-80
2023/09/29 11:00:48;;;;;;;4.22;2.22;;;21.40;94.90;;;;;;5073184;28;20071;-81
2023/09/29 11:03:16;;;;;;;5.00;2.42;;;21.40;94.80;;;;;;5073172;28;20024;-80
2023/09/29 11:05:53;;;;;;;4.18;2.13;;;21.40;94.60;;;;;;5073153;28;20028;-80
2023/09/29 11:08:27;;;;;;;4.68;2.58;;;21.50;95.00;;;;;;5055556;28;20025;-81
2023/09/29 11:11:03;;;;;;;5.38;2.60;;;21.50;94.90;;;;;;5073082;28;20025;-81
2023/09/29 11:13:30;;;;;;;5.05;2.33;;;21.60;94.70;;;;;;5055621;28;20474;-83
2023/09/29 11:15:58;;;;;;;5.93;2.60;;;21.50;94.60;;;;;;5055578;28;20021;-81
2023/09/29 11:18:31;;;;;;;4.70;2.33;;;21.50;94.20;;;;;;5059392;28;20052;-82
2023/09/29 11:20:58;;;;;;;3.90;2.15;;;21.50;94.30;;;;;;5046104;28;20048;-81
2023/09/29 11:23:24;;;;;;;5.20;2.92;;;21.50;94.40;;;;;;5079698;28;20029;-80
2023/09/29 11:26:04;;;;;;;4.28;2.70;;;21.40;94.50;;;;;;5061973;28;20024;-81
2023/09/29 11:28:30;;;;;;;4.65;2.22;;;21.30;94.30;;;;;;5079823;28;20088;-82
2023/09/29 11:30:55;;;;;;;4.93;2.70;;;21.30;94.40;;;;;;5045502;28;20021;-82
2023/09/29 11:33:22;;;;;;;3.33;2.25;;;21.30;94.30;;;;;;5045448;28;20036;-81
2023/09/29 11:35:47;;;;;;;4.68;2.63;;;21.30;94.10;;;;;;5079598;28;20032;-82
2023/09/29 11:38:24;;;;;;;7.35;2.92;;;21.30;93.90;;;;;;5045425;28;20021;-82
2023/09/29 11:40:51;;;;;;;10.38;2.50;;;21.40;94.30;;;;;;5063541;28;20045;-81
2023/09/29 11:43:18;;;;;;;3.90;2.20;;;21.60;93.90;;;;;;5079597;28;20017;-82
2023/09/29 11:45:44;;;;;;;4.53;2.60;;;21.70;93.30;;;;;;5079472;28;20028;-81
2023/09/29 11:48:10;;;;;;;4.68;2.47;;;21.90;93.50;;;;;;5061745;28;20033;-81
2023/09/29 11:50:36;;;;;;;7.13;2.67;;;22.10;94.00;;;;;;5079406;28;20033;-81
2023/09/29 11:53:06;;;;;;;5.97;2.33;;;22.20;93.90;;;;;;5079305;28;20056;-81
2023/09/29 11:55:33;;;;;;;4.90;2.30;;;22.20;93.00;;;;;;5062260;28;20021;-82
2023/09/29 11:57:58;;;;;;;4.60;2.75;;;22.20;92.60;;;;;;5045452;28;20021;-81
2023/09/29 12:00:24;;;;;;;6.32;3.13;;;22.20;92.50;;;;;;5061610;28;20082;-81
2023/09/29 12:02:50;;;;;;;7.30;2.95;;;22.20;92.30;;;;;;5061807;28;20029;-81
2023/09/29 12:05:15;;;;;;;5.72;3.00;;;22.20;92.30;;;;;;5045152;28;20502;-81
2023/09/29 12:07:41;;;;;;;5.65;3.00;;;22.30;92.50;;;;;;5028774;28;20025;-81
2023/09/29 12:10:07;;;;;;;5.00;2.90;;;22.40;92.80;;;;;;5044898;28;20025;-81
2023/09/29 12:12:33;;;;;;;4.07;2.28;;;22.40;92.50;;;;;;5061637;28;20037;-82
2023/09/29 12:14:59;;;;;;;4.88;2.58;;;22.50;92.60;;;;;;5045036;28;20025;-81
2023/09/29 12:17:25;;;;;;;4.95;2.47;;;22.50;92.50;;;;;;5061767;28;20024;-80
2023/09/29 12:19:51;;;;;;;3.83;2.10;;;22.50;92.40;;;;;;5079335;28;20096;-81
2023/09/29 12:22:18;;;;;;;5.00;2.05;;;22.50;92.40;;;;;;5045079;28;20061;-81
2023/09/29 12:24:44;;;;;;;2.70;1.92;;;22.70;92.80;;;;;;5061868;28;20028;-81
2023/09/29 12:27:10;;;;;;;5.00;2.10;;;22.60;92.10;;;;;;5044982;28;20025;-80
2023/09/29 12:29:37;;;;;;;3.45;2.22;;;22.50;91.80;;;;;;5059719;28;20036;-82
2023/09/29 12:32:03;;;;;;;4.05;2.63;;;22.50;92.10;;;;;;5058453;28;20121;-82
2023/09/29 12:34:32;;;;;;;4.07;2.22;;;22.30;92.00;;;;;;5058011;28;20037;-82
2023/09/29 12:36:59;;;;;;;4.97;2.40;;;22.20;92.10;;;;;;5058278;28;20041;-83
2023/09/29 12:39:25;;;;;;;4.60;2.15;;;22.00;92.40;;;;;;5058487;28;20045;-82
2023/09/29 12:41:51;;;;;;;3.40;2.40;;;22.00;92.60;;;;;;5058084;28;20025;-84
2023/09/29 12:44:17;;;;;;;3.42;2.47;;;21.80;93.00;;;;;;5058207;28;20029;-81
2023/09/29 12:46:43;;;;;;;3.75;2.17;;;21.80;93.30;;;;;;5041554;28;20033;-82